createdAt,value
2022-10-26T00:00:33.816Z,9.88
2022-10-26T00:01:55.602Z,9.89
2022-10-26T00:02:57.310Z,9.90
2022-10-26T00:03:58.930Z,9.92
2022-10-26T00:05:00.538Z,9.92
2022-10-26T00:06:07.958Z,9.93
2022-10-26T00:07:09.797Z,9.93
2022-10-26T00:08:11.952Z,9.94
2022-10-26T00:09:14.123Z,9.94
2022-10-26T00:10:15.995Z,9.94
2022-10-26T00:11:19.070Z,9.94
2022-10-26T00:12:20.715Z,9.95
2022-10-26T00:13:22.373Z,9.96
2022-10-26T00:14:24.554Z,9.97
2022-10-26T00:15:26.271Z,9.98
2022-10-26T00:16:28.048Z,9.99
2022-10-26T00:17:29.890Z,9.99
2022-10-26T00:18:31.527Z,9.99
2022-10-26T00:19:35.090Z,10.01
2022-10-26T00:20:39.954Z,10.01
2022-10-26T00:21:42.754Z,10.01
2022-10-26T00:22:44.504Z,10.02
2022-10-26T00:23:46.279Z,10.03
2022-10-26T00:24:47.957Z,10.03
2022-10-26T00:25:57.332Z,10.06
2022-10-26T00:27:00.276Z,10.07
2022-10-26T00:28:11.045Z,10.07
2022-10-26T00:29:12.864Z,10.07
2022-10-26T00:30:14.654Z,10.08
2022-10-26T00:31:16.726Z,10.08
2022-10-26T00:32:18.415Z,10.08
2022-10-26T00:33:20.172Z,10.08
2022-10-26T00:34:21.832Z,10.06
2022-10-26T00:35:34.750Z,10.08
2022-10-26T00:36:45.395Z,10.07
2022-10-26T00:37:47.509Z,10.08
2022-10-26T00:38:51.099Z,10.09
2022-10-26T00:39:52.894Z,10.11
2022-10-26T00:40:54.659Z,10.12
2022-10-26T00:41:56.360Z,10.12
2022-10-26T00:42:58.170Z,10.12
2022-10-26T00:44:00.841Z,10.13
2022-10-26T00:45:19.270Z,10.16
2022-10-26T00:46:41.214Z,10.18
2022-10-26T00:47:49.162Z,10.21
2022-10-26T00:49:01.599Z,10.24
2022-10-26T00:50:11.713Z,10.24
2022-10-26T00:51:24.780Z,10.26
2022-10-26T00:52:29.637Z,10.26
2022-10-26T00:53:33.164Z,10.27
2022-10-26T00:54:35.813Z,10.28
2022-10-26T00:55:47.333Z,10.29
2022-10-26T00:56:54.704Z,10.30
2022-10-26T00:57:56.758Z,10.31
2022-10-26T00:59:05.683Z,10.30
2022-10-26T01:00:08.674Z,10.28
2022-10-26T01:01:10.513Z,10.29
2022-10-26T01:02:13.550Z,10.28
2022-10-26T01:03:16.244Z,10.28
2022-10-26T01:04:18.856Z,10.29
2022-10-26T01:05:21.397Z,10.30
2022-10-26T01:06:23.179Z,10.31
2022-10-26T01:07:27.562Z,10.33
2022-10-26T01:08:30.439Z,10.34
2022-10-26T01:09:34.018Z,10.34
2022-10-26T01:10:40.282Z,10.33
2022-10-26T01:11:41.919Z,10.33
2022-10-26T01:12:43.813Z,10.34
2022-10-26T01:13:48.678Z,10.34
2022-10-26T01:14:50.609Z,10.34
2022-10-26T01:16:16.743Z,10.34
2022-10-26T01:17:38.138Z,10.34
2022-10-26T01:18:58.489Z,10.33
2022-10-26T01:20:25.361Z,10.34
2022-10-26T01:21:26.924Z,10.33
2022-10-26T01:22:47.860Z,10.32
2022-10-26T01:24:16.560Z,10.32
2022-10-26T01:25:50.850Z,10.31
2022-10-26T01:27:04.280Z,10.32
2022-10-26T01:28:34.374Z,10.33
2022-10-26T01:29:41.870Z,10.33
2022-10-26T01:30:48.817Z,10.35
2022-10-26T01:32:14.377Z,10.35
2022-10-26T01:33:35.207Z,10.35
2022-10-26T01:35:04.955Z,10.35
2022-10-26T01:36:38.739Z,10.36
2022-10-26T01:37:52.236Z,10.36
2022-10-26T01:39:28.229Z,10.37
2022-10-26T01:40:38.050Z,10.38
2022-10-26T01:41:48.088Z,10.38
2022-10-26T01:42:55.356Z,10.37
2022-10-26T01:44:04.473Z,10.37
2022-10-26T01:45:11.661Z,10.37
2022-10-26T01:46:17.171Z,10.36
2022-10-26T01:47:23.499Z,10.36
2022-10-26T01:48:27.663Z,10.34
2022-10-26T01:49:35.631Z,10.34
2022-10-26T01:50:40.006Z,10.34
2022-10-26T01:51:44.943Z,10.35
2022-10-26T01:52:50.719Z,10.34
2022-10-26T01:53:52.415Z,10.35
2022-10-26T01:55:23.288Z,10.35
2022-10-26T01:56:34.988Z,10.35
2022-10-26T01:57:38.693Z,10.34
2022-10-26T01:59:01.373Z,10.33
2022-10-26T02:00:12.272Z,10.35
2022-10-26T02:01:44.274Z,10.36
2022-10-26T02:03:07.489Z,10.36
2022-10-26T02:04:46.154Z,10.35
2022-10-26T02:06:05.027Z,10.34
2022-10-26T02:07:30.507Z,10.33
2022-10-26T02:08:58.469Z,10.33
2022-10-26T02:10:18.798Z,10.32
2022-10-26T02:11:32.899Z,10.31
2022-10-26T02:12:50.129Z,10.29
2022-10-26T02:14:02.692Z,10.28
2022-10-26T02:15:11.450Z,10.27
2022-10-26T02:16:26.504Z,10.27
2022-10-26T02:17:41.278Z,10.25
2022-10-26T02:18:54.128Z,10.23
2022-10-26T02:20:04.967Z,10.22
2022-10-26T02:21:17.090Z,10.22
2022-10-26T02:22:28.905Z,10.22
2022-10-26T02:23:36.862Z,10.20
2022-10-26T02:24:41.224Z,10.19
2022-10-26T02:25:55.233Z,10.17
2022-10-26T02:27:01.803Z,10.17
2022-10-26T02:28:10.053Z,10.16
2022-10-26T02:29:17.677Z,10.14
2022-10-26T02:30:20.212Z,10.14
2022-10-26T02:31:25.853Z,10.14
2022-10-26T02:32:34.608Z,10.13
2022-10-26T02:34:53.770Z,10.13
2022-10-26T02:36:01.319Z,10.14
2022-10-26T02:37:06.004Z,10.15
2022-10-26T02:38:13.094Z,10.15
2022-10-26T02:39:19.150Z,10.16
2022-10-26T02:40:25.862Z,10.17
2022-10-26T02:41:30.841Z,10.18
2022-10-26T02:42:33.864Z,10.18
2022-10-26T02:43:48.340Z,10.18
2022-10-26T02:45:02.866Z,10.17
2022-10-26T02:46:11.215Z,10.16
2022-10-26T02:47:13.706Z,10.14
2022-10-26T02:48:15.918Z,10.13
2022-10-26T02:49:18.743Z,10.11
2022-10-26T02:50:29.988Z,10.10
2022-10-26T02:51:49.749Z,10.08
2022-10-26T02:53:08.678Z,10.07
2022-10-26T02:54:32.798Z,10.05
2022-10-26T02:55:44.155Z,10.04
2022-10-26T02:56:55.091Z,10.06
2022-10-26T02:58:06.622Z,10.06
2022-10-26T02:59:12.722Z,10.06
2022-10-26T03:00:17.899Z,10.05
2022-10-26T03:01:20.854Z,10.05
2022-10-26T03:02:23.648Z,10.05
2022-10-26T03:03:26.155Z,10.04
2022-10-26T03:04:32.422Z,10.05
2022-10-26T03:05:36.132Z,10.07
2022-10-26T03:06:37.762Z,10.08
2022-10-26T03:07:39.377Z,10.11
2022-10-26T03:08:41.028Z,10.11
2022-10-26T03:09:42.662Z,10.12
2022-10-26T03:10:46.125Z,10.12
2022-10-26T03:11:47.874Z,10.10
2022-10-26T03:12:49.899Z,10.09
2022-10-26T03:13:51.806Z,10.09
2022-10-26T03:14:53.479Z,10.08
2022-10-26T03:15:57.607Z,10.07
2022-10-26T03:16:59.275Z,10.05
2022-10-26T03:18:01.067Z,10.05
2022-10-26T03:19:02.707Z,10.05
2022-10-26T03:20:04.987Z,10.06
2022-10-26T03:21:06.850Z,10.06
2022-10-26T03:22:08.490Z,10.07
2022-10-26T03:23:10.262Z,10.08
2022-10-26T03:24:12.018Z,10.07
2022-10-26T03:25:15.594Z,10.09
2022-10-26T03:26:17.567Z,10.10
2022-10-26T03:27:19.528Z,10.10
2022-10-26T03:28:21.196Z,10.11
2022-10-26T03:29:23.373Z,10.10
2022-10-26T03:30:26.387Z,10.10
2022-10-26T03:31:28.019Z,10.09
2022-10-26T03:32:29.667Z,10.08
2022-10-26T03:33:31.615Z,10.07
2022-10-26T03:34:33.387Z,10.05
2022-10-26T03:35:35.185Z,10.03
2022-10-26T03:36:36.930Z,10.01
2022-10-26T03:37:38.573Z,10.01
2022-10-26T03:38:40.280Z,10.01
2022-10-26T03:39:41.937Z,9.99
2022-10-26T03:40:43.617Z,9.97
2022-10-26T03:41:45.509Z,9.95
2022-10-26T03:42:47.405Z,9.95
2022-10-26T03:43:49.356Z,9.94
2022-10-26T03:44:51.914Z,9.92
2022-10-26T03:45:53.845Z,9.90
2022-10-26T03:46:55.522Z,9.89
2022-10-26T03:47:57.187Z,9.88
2022-10-26T03:48:58.866Z,9.87
2022-10-26T03:50:00.834Z,9.85
2022-10-26T03:51:02.512Z,9.82
2022-10-26T03:52:04.388Z,9.80
2022-10-26T03:53:07.180Z,9.77
2022-10-26T03:54:09.034Z,9.73
2022-10-26T03:55:11.024Z,9.72
2022-10-26T03:56:12.733Z,9.72
2022-10-26T03:57:14.400Z,9.72
2022-10-26T03:58:16.092Z,9.70
2022-10-26T03:59:17.835Z,9.69
2022-10-26T04:00:19.669Z,9.67
2022-10-26T04:01:21.502Z,9.67
2022-10-26T04:02:23.200Z,9.66
2022-10-26T04:03:24.865Z,9.64
2022-10-26T04:04:26.691Z,9.64
2022-10-26T04:05:29.829Z,9.62
2022-10-26T04:06:31.489Z,9.62
2022-10-26T04:07:33.180Z,9.63
2022-10-26T04:08:35.173Z,9.66
2022-10-26T04:09:36.925Z,9.65
2022-10-26T04:10:38.580Z,9.64
2022-10-26T04:11:40.207Z,9.65
2022-10-26T04:12:41.817Z,9.66
2022-10-26T04:13:43.450Z,9.66
2022-10-26T04:14:45.090Z,9.66
2022-10-26T04:15:46.709Z,9.66
2022-10-26T04:16:48.369Z,9.67
2022-10-26T04:17:56.816Z,9.67
2022-10-26T04:18:58.490Z,9.64
2022-10-26T04:20:00.197Z,9.67
2022-10-26T04:21:02.397Z,9.67
2022-10-26T04:22:04.151Z,9.68
2022-10-26T04:23:16.497Z,9.69
2022-10-26T04:24:18.186Z,9.69
2022-10-26T04:25:19.944Z,9.68
2022-10-26T04:26:21.714Z,9.68
2022-10-26T04:27:23.427Z,9.67
2022-10-26T04:28:25.066Z,9.66
2022-10-26T04:29:26.720Z,9.64
2022-10-26T04:30:28.517Z,9.63
2022-10-26T04:31:30.634Z,9.62
2022-10-26T04:32:32.321Z,9.64
2022-10-26T04:33:33.946Z,9.67
2022-10-26T04:34:35.648Z,9.69
2022-10-26T04:35:37.339Z,9.71
2022-10-26T04:36:39.084Z,9.74
2022-10-26T04:37:41.030Z,9.73
2022-10-26T04:38:43.167Z,9.72
2022-10-26T04:39:44.832Z,9.72
2022-10-26T04:40:46.569Z,9.69
2022-10-26T04:41:48.215Z,9.67
2022-10-26T04:42:50.031Z,9.64
2022-10-26T04:43:51.883Z,9.60
2022-10-26T04:44:53.524Z,9.60
2022-10-26T04:45:58.669Z,9.60
2022-10-26T04:47:00.395Z,9.60
2022-10-26T04:48:08.461Z,9.59
2022-10-26T04:49:10.244Z,9.60
2022-10-26T04:50:13.195Z,9.60
2022-10-26T04:51:14.991Z,9.60
2022-10-26T04:52:16.711Z,9.60
2022-10-26T04:53:18.350Z,9.59
2022-10-26T04:54:20.542Z,9.58
2022-10-26T04:55:22.532Z,9.59
2022-10-26T04:56:24.481Z,9.60
2022-10-26T04:57:26.092Z,9.61
2022-10-26T04:58:28.971Z,9.62
2022-10-26T04:59:30.716Z,9.62
2022-10-26T05:00:33.447Z,9.62
2022-10-26T05:01:35.271Z,9.62
2022-10-26T05:02:37.118Z,9.63
2022-10-26T05:03:38.746Z,9.64
2022-10-26T05:04:40.396Z,9.64
2022-10-26T05:05:42.279Z,9.62
2022-10-26T05:06:43.953Z,9.60
2022-10-26T05:07:53.944Z,9.60
2022-10-26T05:08:55.613Z,9.58
2022-10-26T05:09:57.261Z,9.60
2022-10-26T05:10:58.919Z,9.63
2022-10-26T05:12:00.665Z,9.64
2022-10-26T05:13:03.062Z,9.66
2022-10-26T05:14:04.825Z,9.68
2022-10-26T05:15:08.622Z,9.69
2022-10-26T05:16:10.481Z,9.69
2022-10-26T05:17:12.160Z,9.70
2022-10-26T05:18:13.803Z,9.71
2022-10-26T05:19:15.431Z,9.72
2022-10-26T05:20:17.059Z,9.71
2022-10-26T05:21:21.552Z,9.71
2022-10-26T05:22:23.228Z,9.70
2022-10-26T05:23:24.869Z,9.70
2022-10-26T05:24:26.537Z,9.70
2022-10-26T05:25:31.349Z,9.68
2022-10-26T05:26:33.133Z,9.67
2022-10-26T05:27:34.759Z,9.64
2022-10-26T05:28:36.470Z,9.62
2022-10-26T05:29:38.128Z,9.59
2022-10-26T05:30:41.151Z,9.58
2022-10-26T05:31:43.463Z,9.56
2022-10-26T05:32:45.109Z,9.58
2022-10-26T05:33:52.569Z,9.59
2022-10-26T05:34:54.165Z,9.59
2022-10-26T05:35:55.807Z,9.60
2022-10-26T05:36:57.506Z,9.61
2022-10-26T05:38:00.253Z,9.62
2022-10-26T05:39:02.545Z,9.60
2022-10-26T05:40:04.614Z,9.59
2022-10-26T05:41:06.245Z,9.59
2022-10-26T05:42:07.898Z,9.59
2022-10-26T05:43:10.081Z,9.61
2022-10-26T05:44:11.718Z,9.63
2022-10-26T05:45:13.865Z,9.65
2022-10-26T05:46:15.643Z,9.67
2022-10-26T05:47:17.450Z,9.69
2022-10-26T05:48:19.521Z,9.71
2022-10-26T05:49:21.197Z,9.71
2022-10-26T05:50:22.940Z,9.74
2022-10-26T05:51:24.777Z,9.76
2022-10-26T05:52:26.442Z,9.79
2022-10-26T05:53:28.671Z,9.80
2022-10-26T05:54:30.540Z,9.81
2022-10-26T05:55:32.659Z,9.80
2022-10-26T05:56:39.253Z,9.81
2022-10-26T05:57:41.711Z,9.83
2022-10-26T05:58:43.697Z,9.85
2022-10-26T05:59:45.695Z,9.86
2022-10-26T06:01:13.364Z,9.85
2022-10-26T06:02:30.862Z,9.85
2022-10-26T06:03:52.344Z,9.88
2022-10-26T06:05:05.568Z,9.91
2022-10-26T06:06:08.051Z,9.94
2022-10-26T06:07:14.310Z,9.95
2022-10-26T06:08:16.280Z,9.97
2022-10-26T06:09:18.183Z,9.97
2022-10-26T06:10:20.591Z,9.98
2022-10-26T06:11:22.481Z,9.98
2022-10-26T06:12:26.588Z,9.99
2022-10-26T06:13:28.531Z,9.99
2022-10-26T06:14:30.567Z,9.99
2022-10-26T06:15:43.935Z,9.96
2022-10-26T06:16:58.062Z,9.93
2022-10-26T06:18:08.663Z,9.91
2022-10-26T06:19:27.171Z,9.88
2022-10-26T06:20:51.749Z,9.86
2022-10-26T06:22:26.913Z,9.82
2022-10-26T06:23:31.562Z,9.83
2022-10-26T06:24:59.278Z,9.84
2022-10-26T06:26:27.284Z,9.85
2022-10-26T06:27:52.319Z,9.86
2022-10-26T06:29:09.764Z,9.89
2022-10-26T06:30:12.089Z,9.91
2022-10-26T06:31:14.582Z,9.92
2022-10-26T06:32:17.561Z,9.93
2022-10-26T06:33:35.540Z,9.93
2022-10-26T06:34:45.490Z,9.92
2022-10-26T06:36:06.871Z,9.88
2022-10-26T06:37:09.834Z,9.86
2022-10-26T06:38:23.196Z,9.83
2022-10-26T06:39:27.909Z,9.82
2022-10-26T06:40:33.083Z,9.81
2022-10-26T06:41:36.934Z,9.82
2022-10-26T06:42:39.055Z,9.84
2022-10-26T06:43:41.223Z,9.86
2022-10-26T06:44:43.464Z,9.89
2022-10-26T06:45:54.709Z,9.90
2022-10-26T06:47:17.639Z,9.91
2022-10-26T06:48:28.292Z,9.89
2022-10-26T06:49:54.673Z,9.88
2022-10-26T06:50:56.692Z,9.86
2022-10-26T06:52:25.754Z,9.85
2022-10-26T06:54:49.797Z,9.82
2022-10-26T06:55:52.394Z,9.84
2022-10-26T06:56:54.317Z,9.85
2022-10-26T06:57:56.103Z,9.90
2022-10-26T06:59:08.388Z,9.92
2022-10-26T07:00:19.861Z,9.95
2022-10-26T07:01:21.852Z,9.96
2022-10-26T07:02:23.875Z,9.96
2022-10-26T07:03:25.635Z,9.96
2022-10-26T07:04:27.432Z,9.95
2022-10-26T07:05:29.115Z,9.94
2022-10-26T07:06:32.445Z,9.93
2022-10-26T07:07:43.005Z,9.91
2022-10-26T07:08:44.707Z,9.89
2022-10-26T07:09:46.381Z,9.86
2022-10-26T07:10:48.027Z,9.87
2022-10-26T07:11:49.642Z,9.89
2022-10-26T07:12:51.250Z,9.87
2022-10-26T07:13:52.893Z,9.82
2022-10-26T07:14:55.000Z,9.77
2022-10-26T07:15:56.656Z,9.72
2022-10-26T07:16:58.405Z,9.67
2022-10-26T07:18:00.306Z,9.62
2022-10-26T07:19:01.917Z,9.58
2022-10-26T07:20:03.946Z,9.56
2022-10-26T07:21:05.719Z,9.52
2022-10-26T07:22:07.366Z,9.52
2022-10-26T07:23:13.061Z,9.51
2022-10-26T07:24:15.209Z,9.53
2022-10-26T07:25:16.909Z,9.54
2022-10-26T07:26:18.775Z,9.54
2022-10-26T07:27:20.437Z,9.55
2022-10-26T07:28:22.031Z,9.55
2022-10-26T07:29:25.765Z,9.56
2022-10-26T07:30:29.130Z,9.60
2022-10-26T07:31:30.780Z,9.60
2022-10-26T07:32:33.014Z,9.59
2022-10-26T07:33:36.910Z,9.60
2022-10-26T07:34:42.539Z,9.62
2022-10-26T07:35:44.653Z,9.66
2022-10-26T07:36:46.279Z,9.68
2022-10-26T07:37:49.650Z,9.71
2022-10-26T07:38:53.065Z,9.74
2022-10-26T07:39:54.688Z,9.77
2022-10-26T07:40:56.520Z,9.80
2022-10-26T07:41:58.668Z,9.81
2022-10-26T07:43:01.187Z,9.80
2022-10-26T07:44:03.036Z,9.77
2022-10-26T07:45:05.042Z,9.75
2022-10-26T07:46:06.921Z,9.74
2022-10-26T07:47:08.647Z,9.73
2022-10-26T07:48:10.224Z,9.72
2022-10-26T07:49:11.825Z,9.72
2022-10-26T07:50:13.451Z,9.73
2022-10-26T07:51:15.645Z,9.76
2022-10-26T07:52:17.406Z,9.76
2022-10-26T07:53:19.069Z,9.73
2022-10-26T07:54:20.738Z,9.71
2022-10-26T07:55:22.386Z,9.70
2022-10-26T07:56:24.161Z,9.73
2022-10-26T07:57:25.770Z,9.74
2022-10-26T07:58:28.195Z,9.77
2022-10-26T07:59:29.844Z,9.78
2022-10-26T08:00:31.821Z,9.80
2022-10-26T08:01:33.933Z,9.80
2022-10-26T08:02:36.420Z,9.81
2022-10-26T08:03:38.214Z,9.81
2022-10-26T08:04:39.834Z,9.79
2022-10-26T08:05:41.536Z,9.78
2022-10-26T08:06:43.772Z,9.78
2022-10-26T08:07:45.585Z,9.78
2022-10-26T08:08:47.689Z,9.77
2022-10-26T08:09:49.482Z,9.77
2022-10-26T08:10:52.270Z,9.78
2022-10-26T08:11:53.879Z,9.82
2022-10-26T08:12:55.641Z,9.85
2022-10-26T08:13:57.274Z,9.87
2022-10-26T08:14:58.894Z,9.88
2022-10-26T08:16:03.445Z,9.90
2022-10-26T08:17:05.356Z,9.91
2022-10-26T08:18:07.631Z,9.92
2022-10-26T08:19:09.394Z,9.91
2022-10-26T08:20:11.549Z,9.90
2022-10-26T08:21:21.726Z,9.88
2022-10-26T08:22:32.212Z,9.89
2022-10-26T08:23:34.383Z,9.88
2022-10-26T08:24:36.011Z,9.87
2022-10-26T08:25:37.617Z,9.90
2022-10-26T08:26:39.224Z,9.93
2022-10-26T08:27:40.862Z,9.95
2022-10-26T08:28:42.834Z,9.99
2022-10-26T08:29:44.455Z,10.04
2022-10-26T08:30:46.077Z,10.08
2022-10-26T08:31:48.715Z,10.14
2022-10-26T08:32:58.620Z,10.19
2022-10-26T08:34:00.610Z,10.22
2022-10-26T08:35:02.264Z,10.27
2022-10-26T08:36:05.555Z,10.30
2022-10-26T08:37:07.213Z,10.32
2022-10-26T08:38:08.859Z,10.34
2022-10-26T08:39:10.551Z,10.34
2022-10-26T08:40:16.980Z,10.39
2022-10-26T08:41:36.292Z,10.45
2022-10-26T08:42:47.927Z,10.49
2022-10-26T08:44:01.628Z,10.50
2022-10-26T08:45:29.587Z,10.49
2022-10-26T08:46:43.041Z,10.46
2022-10-26T08:47:51.403Z,10.45
2022-10-26T08:49:02.502Z,10.45
2022-10-26T08:50:19.178Z,10.46
2022-10-26T08:51:35.506Z,10.48
2022-10-26T08:53:03.731Z,10.50
2022-10-26T08:54:27.794Z,10.50
2022-10-26T08:56:58.386Z,10.59
2022-10-26T08:58:05.376Z,10.65
2022-10-26T08:59:40.691Z,10.72
2022-10-26T09:00:44.170Z,10.85
2022-10-26T09:01:46.169Z,10.94
2022-10-26T09:02:54.280Z,11.02
2022-10-26T09:03:57.508Z,11.03
2022-10-26T09:05:00.435Z,11.02
2022-10-26T09:06:23.990Z,11.01
2022-10-26T09:08:08.891Z,10.99
2022-10-26T09:09:19.770Z,10.99
2022-10-26T09:10:56.746Z,10.97
2022-10-26T09:12:18.999Z,11.01
2022-10-26T09:13:34.876Z,11.00
2022-10-26T09:15:22.900Z,10.98
2022-10-26T09:16:39.505Z,10.94
2022-10-26T09:17:51.242Z,10.91
2022-10-26T09:19:08.818Z,10.87
2022-10-26T09:20:39.851Z,10.84
2022-10-26T09:21:52.902Z,10.85
2022-10-26T09:23:21.276Z,10.88
2022-10-26T09:24:32.451Z,10.92
2022-10-26T09:25:40.464Z,10.97
2022-10-26T09:26:55.047Z,11.04
2022-10-26T09:28:02.223Z,11.16
2022-10-26T09:29:11.693Z,11.25
2022-10-26T09:30:18.472Z,11.35
2022-10-26T09:31:20.352Z,11.40
2022-10-26T09:32:55.469Z,11.43
2022-10-26T09:34:02.901Z,11.45
2022-10-26T09:35:16.087Z,11.46
2022-10-26T09:36:22.158Z,11.50
2022-10-26T09:37:40.576Z,11.51
2022-10-26T09:38:56.885Z,11.52
2022-10-26T09:40:20.276Z,11.56
2022-10-26T09:41:39.449Z,11.62
2022-10-26T09:42:53.921Z,11.66
2022-10-26T09:44:16.950Z,11.69
2022-10-26T09:45:25.477Z,11.73
2022-10-26T09:46:33.520Z,11.77
2022-10-26T09:47:39.124Z,11.79
2022-10-26T09:48:54.302Z,11.79
2022-10-26T09:50:09.872Z,11.77
2022-10-26T09:51:11.780Z,11.70
2022-10-26T09:52:13.621Z,11.67
2022-10-26T09:53:15.627Z,11.64
2022-10-26T09:54:20.825Z,11.62
2022-10-26T09:55:23.055Z,11.61
2022-10-26T09:56:27.990Z,11.60
2022-10-26T09:57:29.879Z,11.60
2022-10-26T09:58:38.570Z,11.60
2022-10-26T09:59:42.021Z,11.61
2022-10-26T10:00:46.064Z,11.63
2022-10-26T10:01:47.788Z,11.67
2022-10-26T10:02:55.480Z,11.71
2022-10-26T10:04:11.811Z,11.76
2022-10-26T10:05:49.887Z,11.77
2022-10-26T10:07:15.439Z,11.76
2022-10-26T10:08:19.787Z,11.79
2022-10-26T10:09:24.780Z,11.85
2022-10-26T10:10:26.453Z,11.90
2022-10-26T10:11:41.823Z,11.93
2022-10-26T10:12:44.978Z,11.97
2022-10-26T10:13:46.910Z,12.00
2022-10-26T10:14:59.672Z,12.03
2022-10-26T10:16:06.406Z,12.05
2022-10-26T10:17:21.308Z,12.05
2022-10-26T10:18:24.368Z,12.06
2022-10-26T10:19:38.299Z,12.13
2022-10-26T10:20:39.995Z,12.21
2022-10-26T10:21:48.233Z,12.23
2022-10-26T10:23:24.644Z,12.27
2022-10-26T10:24:28.181Z,12.35
2022-10-26T10:25:38.875Z,12.39
2022-10-26T10:27:03.397Z,12.41
2022-10-26T10:28:27.688Z,12.42
2022-10-26T10:29:32.785Z,12.44
2022-10-26T10:30:34.494Z,12.48
2022-10-26T10:31:36.181Z,12.52
2022-10-26T10:32:40.586Z,12.55
2022-10-26T10:33:45.854Z,12.58
2022-10-26T10:34:48.828Z,12.62
2022-10-26T10:35:52.569Z,12.69
2022-10-26T10:36:54.950Z,12.76
2022-10-26T10:37:57.733Z,12.78
2022-10-26T10:39:00.617Z,12.76
2022-10-26T10:40:09.113Z,12.73
2022-10-26T10:41:25.820Z,12.75
2022-10-26T10:42:33.183Z,12.73
2022-10-26T10:43:34.958Z,12.65
2022-10-26T10:44:36.726Z,12.64
2022-10-26T10:45:39.028Z,12.62
2022-10-26T10:46:41.029Z,12.61
2022-10-26T10:47:45.131Z,12.62
2022-10-26T10:48:52.547Z,12.67
2022-10-26T10:50:03.401Z,12.73
2022-10-26T10:51:12.576Z,12.74
2022-10-26T10:52:27.557Z,12.71
2022-10-26T10:53:43.931Z,12.68
2022-10-26T10:54:50.836Z,12.71
2022-10-26T10:56:26.508Z,12.74
2022-10-26T10:57:49.343Z,12.81
2022-10-26T10:59:11.288Z,12.83
2022-10-26T11:00:13.244Z,12.83
2022-10-26T11:01:23.103Z,12.85
2022-10-26T11:03:06.206Z,13.02
2022-10-26T11:04:34.197Z,13.48
2022-10-26T11:06:00.163Z,13.78
2022-10-26T11:07:07.063Z,13.94
2022-10-26T11:08:18.275Z,14.10
2022-10-26T11:09:27.637Z,14.28
2022-10-26T11:11:04.436Z,14.55
2022-10-26T11:12:38.958Z,14.94
2022-10-26T11:13:52.875Z,15.26
2022-10-26T11:15:03.106Z,15.57
2022-10-26T11:16:15.208Z,15.86
2022-10-26T11:17:27.740Z,16.08
2022-10-26T11:18:37.541Z,16.31
2022-10-26T11:20:15.178Z,16.58
2022-10-26T11:21:23.712Z,16.90
2022-10-26T11:22:33.373Z,17.05
2022-10-26T11:23:45.800Z,17.19
2022-10-26T11:24:54.178Z,17.33
2022-10-26T11:26:14.003Z,17.43
2022-10-26T11:27:20.431Z,17.54
2022-10-26T11:28:43.048Z,17.64
2022-10-26T11:30:19.797Z,17.70
2022-10-26T11:31:27.909Z,17.75
2022-10-26T11:32:41.494Z,17.84
2022-10-26T11:34:03.339Z,17.95
2022-10-26T11:35:12.568Z,18.11
2022-10-26T11:36:24.994Z,18.26
2022-10-26T11:38:08.567Z,18.43
2022-10-26T11:39:41.518Z,18.69
2022-10-26T11:40:54.775Z,18.76
2022-10-26T11:42:15.551Z,18.82
2022-10-26T11:43:40.078Z,18.92
2022-10-26T11:44:53.277Z,19.00
2022-10-26T11:46:16.550Z,19.09
2022-10-26T11:47:35.468Z,19.20
2022-10-26T11:49:02.315Z,19.13
2022-10-26T11:50:19.163Z,19.04
2022-10-26T11:51:41.628Z,18.99
2022-10-26T11:52:49.895Z,18.84
2022-10-26T11:53:52.377Z,18.91
2022-10-26T11:55:00.437Z,18.98
2022-10-26T11:56:11.805Z,19.09
2022-10-26T11:57:16.648Z,19.26
2022-10-26T11:58:19.413Z,19.48
2022-10-26T11:59:32.279Z,19.64
2022-10-26T12:00:47.620Z,19.82
2022-10-26T12:01:58.430Z,19.87
2022-10-26T12:03:12.383Z,19.85
2022-10-26T12:04:16.512Z,19.89
2022-10-26T12:05:33.477Z,19.95
2022-10-26T12:06:35.692Z,20.07
2022-10-26T12:07:41.985Z,20.14
2022-10-26T12:08:53.843Z,20.13
2022-10-26T12:09:58.911Z,20.21
2022-10-26T12:11:08.868Z,20.37
2022-10-26T12:12:42.428Z,20.45
2022-10-26T12:14:15.837Z,20.41
2022-10-26T12:15:40.286Z,20.46
2022-10-26T12:17:10.596Z,20.62
2022-10-26T12:18:43.177Z,20.71
2022-10-26T12:20:25.670Z,20.70
2022-10-26T12:21:33.169Z,20.61
2022-10-26T12:22:43.607Z,20.46
2022-10-26T12:23:58.804Z,20.38
2022-10-26T12:25:15.274Z,20.48
2022-10-26T12:26:23.278Z,20.50
2022-10-26T12:27:31.427Z,20.43
2022-10-26T12:28:36.006Z,20.49
2022-10-26T12:29:47.303Z,20.65
2022-10-26T12:30:48.942Z,20.78
2022-10-26T12:31:50.896Z,20.89
2022-10-26T12:32:59.001Z,20.77
2022-10-26T12:34:01.005Z,20.58
2022-10-26T12:35:31.665Z,20.46
2022-10-26T12:36:55.154Z,20.66
2022-10-26T12:37:59.249Z,20.55
2022-10-26T12:39:02.056Z,20.32
2022-10-26T12:40:41.276Z,20.20
2022-10-26T12:41:56.762Z,19.85
2022-10-26T12:43:18.248Z,19.76
2022-10-26T12:44:43.517Z,19.84
2022-10-26T12:46:13.923Z,19.95
2022-10-26T12:47:48.545Z,20.03
2022-10-26T12:48:53.177Z,20.00
2022-10-26T12:50:06.908Z,20.03
2022-10-26T12:51:21.600Z,20.12
2022-10-26T12:52:30.534Z,20.15
2022-10-26T12:53:33.413Z,20.10
2022-10-26T12:55:05.350Z,20.06
2022-10-26T12:56:18.132Z,20.25
2022-10-26T12:57:29.068Z,20.37
2022-10-26T12:58:41.540Z,20.47
2022-10-26T12:59:53.498Z,20.60
2022-10-26T13:00:57.714Z,20.81
2022-10-26T13:02:33.052Z,20.98
2022-10-26T13:03:58.238Z,21.05
2022-10-26T13:05:13.443Z,21.19
2022-10-26T13:06:51.462Z,21.32
2022-10-26T13:08:02.897Z,21.38
2022-10-26T13:09:21.100Z,21.40
2022-10-26T13:10:26.362Z,21.32
2022-10-26T13:11:35.327Z,21.24
2022-10-26T13:12:48.609Z,21.33
2022-10-26T13:14:03.352Z,21.54
2022-10-26T13:15:20.899Z,21.72
2022-10-26T13:16:27.896Z,21.79
2022-10-26T13:18:45.939Z,21.61
2022-10-26T13:19:54.631Z,21.27
2022-10-26T13:21:05.020Z,20.95
2022-10-26T13:22:16.151Z,20.68
2022-10-26T13:23:27.043Z,20.44
2022-10-26T13:24:34.202Z,20.18
2022-10-26T13:25:36.309Z,19.94
2022-10-26T13:27:05.753Z,19.99
2022-10-26T13:28:47.551Z,19.85
2022-10-26T13:30:04.416Z,20.27
2022-10-26T13:31:41.504Z,20.67
2022-10-26T13:32:56.530Z,21.06
2022-10-26T13:34:03.430Z,20.98
2022-10-26T13:35:11.982Z,20.83
2022-10-26T13:36:33.090Z,20.60
2022-10-26T13:37:36.337Z,20.27
2022-10-26T13:38:38.209Z,20.09
2022-10-26T13:39:43.641Z,20.20
2022-10-26T13:40:46.923Z,20.36
2022-10-26T13:41:53.764Z,20.50
2022-10-26T13:43:00.279Z,20.66
2022-10-26T13:44:06.954Z,20.88
2022-10-26T13:45:18.134Z,20.99
2022-10-26T13:46:27.998Z,21.06
2022-10-26T13:47:53.622Z,21.22
2022-10-26T13:49:05.941Z,21.38
2022-10-26T13:50:15.782Z,21.34
2022-10-26T13:51:30.356Z,21.35
2022-10-26T13:52:54.727Z,21.41
2022-10-26T13:54:19.751Z,21.42
2022-10-26T13:55:29.459Z,21.11
2022-10-26T13:56:37.109Z,20.79
2022-10-26T13:57:57.004Z,20.65
2022-10-26T13:59:04.666Z,20.38
2022-10-26T14:00:19.601Z,20.06
2022-10-26T14:01:24.758Z,19.72
2022-10-26T14:02:31.936Z,19.42
2022-10-26T14:03:33.554Z,19.13
2022-10-26T14:04:35.153Z,18.92
2022-10-26T14:05:51.022Z,18.81
2022-10-26T14:06:54.751Z,18.94
2022-10-26T14:08:00.368Z,18.96
2022-10-26T14:09:07.360Z,18.77
2022-10-26T14:10:27.121Z,18.54
2022-10-26T14:11:49.158Z,18.33
2022-10-26T14:12:51.647Z,18.12
2022-10-26T14:13:53.793Z,17.97
2022-10-26T14:15:05.718Z,17.85
2022-10-26T14:16:11.778Z,17.73
2022-10-26T14:17:25.863Z,17.60
2022-10-26T14:18:31.498Z,17.43
2022-10-26T14:19:40.715Z,17.29
2022-10-26T14:20:53.673Z,17.15
2022-10-26T14:21:57.002Z,17.04
2022-10-26T14:22:58.963Z,16.96
2022-10-26T14:24:07.508Z,16.89
2022-10-26T14:25:35.783Z,16.79
2022-10-26T14:26:45.378Z,16.64
2022-10-26T14:27:47.163Z,16.53
2022-10-26T14:28:53.051Z,16.45
2022-10-26T14:30:20.986Z,16.36
2022-10-26T14:31:26.798Z,16.25
2022-10-26T14:32:35.590Z,16.17
2022-10-26T14:33:37.283Z,16.08
2022-10-26T14:34:38.927Z,15.99
2022-10-26T14:35:42.072Z,15.93
2022-10-26T14:37:02.126Z,15.84
2022-10-26T14:38:14.167Z,15.76
2022-10-26T14:39:40.933Z,15.69
2022-10-26T14:40:44.194Z,15.61
2022-10-26T14:41:46.305Z,15.57
2022-10-26T14:42:54.788Z,15.52
2022-10-26T14:44:00.098Z,15.44
2022-10-26T14:45:03.207Z,15.35
2022-10-26T14:46:05.141Z,15.25
2022-10-26T14:47:19.145Z,15.15
2022-10-26T14:48:33.935Z,15.03
2022-10-26T14:49:35.526Z,14.90
2022-10-26T14:50:37.403Z,14.80
2022-10-26T14:51:39.070Z,14.72
2022-10-26T14:52:40.792Z,14.66
2022-10-26T14:53:50.815Z,14.61
2022-10-26T14:55:01.268Z,14.56
2022-10-26T14:56:06.001Z,14.49
2022-10-26T14:57:34.805Z,14.43
2022-10-26T14:58:36.730Z,14.30
2022-10-26T14:59:38.617Z,14.22